Ada, OH

5:01 PM EDT on August 30, 2015 (GMT -0400)
Ada | | Change Station
CLOSE
Current Station
Personal Weather Station
Location: Ada, OH
Elevation: 912 ft
Nearby Weather Stations

Elev 912 ft 40.82 °N, 83.86 °W | Updated 28 seconds ago

Mostly Cloudy
Mostly Cloudy
80.6 °F
Feels Like 83 °F
N
6.0
Wind Variable Wind from South
Gusts 14.0 mph

Today
High -- | Low -- °F
--% Chance of Precip.
Yesterday
High -- | Low -- °F
Precip. -- in
6:59 AM 8:10 PM
Full, 98% visible
Pressure 30.03 in
Visibility 10.0 miles
Clouds Scattered Clouds 4300 ft
Mostly Cloudy 5500 ft
Heat Index 83 °F
Dew Point 68 °F
Humidity 66%
Rainfall 0.07 in
Snow Depth Not available.
UV 2 out of 12
Pollen 8.40 out of 12
Air Quality Not available.
Flu Activity Not available.
METAR KAOH 302053Z AUTO 17015G20KT 10SM TS SCT043 BKN055 26/20 A3005 RMK AO2 LTG DSNT S TSE1956B07E31B33 SLP168 T02610200 56009
Pressure 30.03 in
Visibility 10.0 miles
Clouds Scattered Clouds 4300 ft
Mostly Cloudy 5500 ft
Heat Index 83 °F
Dew Point 68 °F
Humidity 66%
Rainfall 0.07 in
Snow Depth Not available.
UV 2 out of 12
Pollen 8.40 out of 12
Air Quality Not available.
Flu Activity Not available.
METAR KAOH 302053Z AUTO 17015G20KT 10SM TS SCT043 BKN055 26/20 A3005 RMK AO2 LTG DSNT S TSE1956B07E31B33 SLP168 T02610200 56009

10-Day Weather Forecast

×

Almanac

Astronomy

Aug. 30, 2015 Rise Set
Actual Time
Civil Twilight
Nautical Twilight
Astronomical Twilight
Moon
Length of Visible Light
Length of Day
Tomorrow will be .
, % of the Moon is Illuminated

Today's Extremes

State Highs State Lows

Community

WunderPhotos

Upload Photos

1,851,060 photos uploaded!

WunderBlogs® & News

Nearby

Air Quality

  Air Quality AQ Index Pollutant
Not available.

Snow Depth

Station Depth Elevation

Earthquake Activity

City Distance Mag. Time & Date
Minimum magnitude displayed is 2.5.

Coastal Water Temperatures

Place Temperature

Stations

Nearby Weather Stations

Station Location Temp. Windchill Dew Point Humidity Wind Precip. Elev Updated Type